sensor_id;sensor_type;location;lat;lon;timestamp;P1;durP1;ratioP1;P2;durP2;ratioP2
4001;SDS011;2015;48.670;9.060;2022-10-16T04:01:14;3.33;;;2.73;;
4001;SDS011;2015;48.670;9.060;2022-10-16T04:03:46;4.10;;;2.88;;
4001;SDS011;2015;48.670;9.060;2022-10-16T04:06:19;3.47;;;3.17;;
4001;SDS011;2015;48.670;9.060;2022-10-16T04:08:50;8.20;;;5.60;;
4001;SDS011;2015;48.670;9.060;2022-10-16T04:11:22;7.43;;;4.20;;
4001;SDS011;2015;48.670;9.060;2022-10-16T04:13:54;4.00;;;3.80;;
4001;SDS011;2015;48.670;9.060;2022-10-16T04:16:26;3.17;;;2.97;;
4001;SDS011;2015;48.670;9.060;2022-10-16T04:18:58;9.47;;;5.10;;
4001;SDS011;2015;48.670;9.060;2022-10-16T04:21:30;7.03;;;2.77;;
4001;SDS011;2015;48.670;9.060;2022-10-16T04:24:01;2.57;;;2.37;;
4001;SDS011;2015;48.670;9.060;2022-10-16T04:26:33;9.03;;;3.63;;
4001;SDS011;2015;48.670;9.060;2022-10-16T04:29:05;3.60;;;2.50;;
4001;SDS011;2015;48.670;9.060;2022-10-16T04:31:38;6.70;;;2.97;;
4001;SDS011;2015;48.670;9.060;2022-10-16T04:34:09;3.17;;;2.87;;
4001;SDS011;2015;48.670;9.060;2022-10-16T04:36:41;4.23;;;3.50;;
4001;SDS011;2015;48.670;9.060;2022-10-16T04:39:13;4.50;;;3.10;;
4001;SDS011;2015;48.670;9.060;2022-10-16T04:41:45;4.10;;;2.93;;
4001;SDS011;2015;48.670;9.060;2022-10-16T04:44:17;5.63;;;3.37;;
4001;SDS011;2015;48.670;9.060;2022-10-16T04:46:51;17.33;;;4.63;;
4001;SDS011;2015;48.670;9.060;2022-10-16T04:49:23;18.40;;;3.87;;
4001;SDS011;2015;48.670;9.060;2022-10-16T04:51:55;6.50;;;2.70;;
4001;SDS011;2015;48.670;9.060;2022-10-16T04:54:27;7.23;;;2.97;;
4001;SDS011;2015;48.670;9.060;2022-10-16T04:56:58;3.23;;;2.70;;
4001;SDS011;2015;48.670;9.060;2022-10-16T04:59:30;7.40;;;2.90;;
4001;SDS011;2015;48.670;9.060;2022-10-16T05:02:02;3.60;;;2.93;;
4001;SDS011;2015;48.670;9.060;2022-10-16T05:04:34;6.47;;;2.40;;
4001;SDS011;2015;48.670;9.060;2022-10-16T05:07:05;5.70;;;2.50;;
4001;SDS011;2015;48.670;9.060;2022-10-16T05:09:37;4.90;;;2.77;;
4001;SDS011;2015;48.670;9.060;2022-10-16T05:12:09;7.53;;;3.40;;
4001;SDS011;2015;48.670;9.060;2022-10-16T05:14:41;2.83;;;2.63;;
4001;SDS011;2015;48.670;9.060;2022-10-16T05:17:12;7.03;;;3.03;;
4001;SDS011;2015;48.670;9.060;2022-10-16T05:19:44;8.10;;;2.93;;
4001;SDS011;2015;48.670;9.060;2022-10-16T05:22:16;3.23;;;2.93;;
4001;SDS011;2015;48.670;9.060;2022-10-16T05:24:48;5.37;;;4.10;;
4001;SDS011;2015;48.670;9.060;2022-10-16T05:27:20;3.27;;;2.90;;
4001;SDS011;2015;48.670;9.060;2022-10-16T05:29:52;4.03;;;2.97;;
4001;SDS011;2015;48.670;9.060;2022-10-16T05:32:23;4.43;;;3.47;;
4001;SDS011;2015;48.670;9.060;2022-10-16T05:34:55;3.30;;;3.10;;
4001;SDS011;2015;48.670;9.060;2022-10-16T05:37:27;7.13;;;3.03;;
4001;SDS011;2015;48.670;9.060;2022-10-16T05:39:59;7.57;;;3.40;;
4001;SDS011;2015;48.670;9.060;2022-10-16T05:42:31;5.60;;;2.67;;
4001;SDS011;2015;48.670;9.060;2022-10-16T05:45:03;3.10;;;2.80;;
4001;SDS011;2015;48.670;9.060;2022-10-16T05:47:36;3.27;;;2.80;;
4001;SDS011;2015;48.670;9.060;2022-10-16T05:50:08;4.50;;;3.23;;
4001;SDS011;2015;48.670;9.060;2022-10-16T05:52:40;6.38;;;3.17;;
4001;SDS011;2015;48.670;9.060;2022-10-16T05:55:12;4.83;;;2.83;;
4001;SDS011;2015;48.670;9.060;2022-10-16T05:57:43;6.50;;;3.10;;
4001;SDS011;2015;48.670;9.060;2022-10-16T06:00:15;5.30;;;2.80;;
4001;SDS011;2015;48.670;9.060;2022-10-16T06:02:47;2.90;;;2.63;;
4001;SDS011;2015;48.670;9.060;2022-10-16T06:05:18;7.23;;;4.23;;
4001;SDS011;2015;48.670;9.060;2022-10-16T06:07:50;10.10;;;3.07;;
4001;SDS011;2015;48.670;9.060;2022-10-16T06:10:22;11.93;;;3.47;;
4001;SDS011;2015;48.670;9.060;2022-10-16T06:12:54;5.33;;;2.90;;
4001;SDS011;2015;48.670;9.060;2022-10-16T06:15:25;5.20;;;3.87;;
4001;SDS011;2015;48.670;9.060;2022-10-16T06:17:57;4.10;;;3.67;;
4001;SDS011;2015;48.670;9.060;2022-10-16T06:20:29;4.13;;;2.40;;
4001;SDS011;2015;48.670;9.060;2022-10-16T06:23:00;3.60;;;3.30;;
4001;SDS011;2015;48.670;9.060;2022-10-16T06:25:32;5.17;;;2.73;;
4001;SDS011;2015;48.670;9.060;2022-10-16T06:28:04;4.37;;;3.10;;
4001;SDS011;2015;48.670;9.060;2022-10-16T06:30:36;8.40;;;3.43;;
4001;SDS011;2015;48.670;9.060;2022-10-16T06:33:08;9.87;;;3.57;;
4001;SDS011;2015;48.670;9.060;2022-10-16T06:35:40;6.00;;;3.20;;
4001;SDS011;2015;48.670;9.060;2022-10-16T06:38:12;3.63;;;3.23;;
4001;SDS011;2015;48.670;9.060;2022-10-16T06:40:43;6.40;;;3.60;;
4001;SDS011;2015;48.670;9.060;2022-10-16T06:43:15;4.80;;;4.50;;
4001;SDS011;2015;48.670;9.060;2022-10-16T06:45:53;3.37;;;2.97;;
4001;SDS011;2015;48.670;9.060;2022-10-16T06:48:27;3.97;;;3.20;;
4001;SDS011;2015;48.670;9.060;2022-10-16T06:53:40;3.57;;;3.27;;
4001;SDS011;2015;48.670;9.060;2022-10-16T06:56:33;4.87;;;3.00;;
4001;SDS011;2015;48.670;9.060;2022-10-16T06:59:05;3.63;;;3.33;;
4001;SDS011;2015;48.670;9.060;2022-10-16T07:01:36;3.00;;;2.70;;
4001;SDS011;2015;48.670;9.060;2022-10-16T07:04:08;12.37;;;3.60;;
4001;SDS011;2015;48.670;9.060;2022-10-16T07:06:40;11.37;;;4.00;;
4001;SDS011;2015;48.670;9.060;2022-10-16T07:09:12;6.87;;;3.40;;
4001;SDS011;2015;48.670;9.060;2022-10-16T07:11:44;4.87;;;2.70;;
4001;SDS011;2015;48.670;9.060;2022-10-16T07:14:16;8.30;;;2.90;;
4001;SDS011;2015;48.670;9.060;2022-10-16T07:16:50;7.30;;;2.63;;
4001;SDS011;2015;48.670;9.060;2022-10-16T07:19:22;4.50;;;3.10;;
4001;SDS011;2015;48.670;9.060;2022-10-16T07:21:54;3.10;;;2.80;;
4001;SDS011;2015;48.670;9.060;2022-10-16T07:24:26;3.90;;;3.23;;
4001;SDS011;2015;48.670;9.060;2022-10-16T07:26:58;3.60;;;2.50;;
4001;SDS011;2015;48.670;9.060;2022-10-16T07:29:29;3.53;;;3.13;;
4001;SDS011;2015;48.670;9.060;2022-10-16T07:32:01;3.67;;;3.40;;
4001;SDS011;2015;48.670;9.060;2022-10-16T07:34:33;2.83;;;2.63;;
4001;SDS011;2015;48.670;9.060;2022-10-16T07:37:05;5.13;;;2.23;;
4001;SDS011;2015;48.670;9.060;2022-10-16T07:39:37;2.73;;;2.63;;
4001;SDS011;2015;48.670;9.060;2022-10-16T07:42:08;2.45;;;2.25;;
4001;SDS011;2015;48.670;9.060;2022-10-16T07:44:40;6.63;;;3.27;;
4001;SDS011;2015;48.670;9.060;2022-10-16T07:47:12;3.00;;;2.43;;
4001;SDS011;2015;48.670;9.060;2022-10-16T07:49:43;2.90;;;2.60;;
4001;SDS011;2015;48.670;9.060;2022-10-16T07:52:15;2.97;;;2.60;;
4001;SDS011;2015;48.670;9.060;2022-10-16T07:54:47;4.43;;;2.80;;
4001;SDS011;2015;48.670;9.060;2022-10-16T07:57:19;3.40;;;3.10;;
4001;SDS011;2015;48.670;9.060;2022-10-16T07:59:51;3.90;;;2.90;;
4001;SDS011;2015;48.670;9.060;2022-10-16T08:02:23;4.07;;;3.00;;
4001;SDS011;2015;48.670;9.060;2022-10-16T08:04:54;4.80;;;2.60;;
4001;SDS011;2015;48.670;9.060;2022-10-16T08:07:26;2.33;;;2.23;;
4001;SDS011;2015;48.670;9.060;2022-10-16T08:09:58;3.10;;;2.90;;
4001;SDS011;2015;48.670;9.060;2022-10-16T08:12:30;2.87;;;2.57;;
4001;SDS011;2015;48.670;9.060;2022-10-16T08:15:02;3.80;;;3.30;;
4001;SDS011;2015;48.670;9.060;2022-10-16T08:17:34;4.40;;;4.00;;
4001;SDS011;2015;48.670;9.060;2022-10-16T08:20:06;3.43;;;3.23;;
4001;SDS011;2015;48.670;9.060;2022-10-16T08:22:38;3.90;;;3.60;;
4001;SDS011;2015;48.670;9.060;2022-10-16T08:25:10;3.90;;;3.57;;
4001;SDS011;2015;48.670;9.060;2022-10-16T08:27:42;3.20;;;3.00;;
4001;SDS011;2015;48.670;9.060;2022-10-16T08:30:14;3.30;;;3.00;;
4001;SDS011;2015;48.670;9.060;2022-10-16T08:32:47;2.50;;;2.30;;
4001;SDS011;2015;48.670;9.060;2022-10-16T08:35:19;2.83;;;2.63;;
4001;SDS011;2015;48.670;9.060;2022-10-16T08:37:51;3.43;;;3.20;;
4001;SDS011;2015;48.670;9.060;2022-10-16T08:40:27;4.00;;;2.40;;
4001;SDS011;2015;48.670;9.060;2022-10-16T08:46:39;2.80;;;2.60;;
4001;SDS011;2015;48.670;9.060;2022-10-16T08:49:11;2.77;;;2.67;;
4001;SDS011;2015;48.670;9.060;2022-10-16T08:51:47;2.60;;;2.40;;
4001;SDS011;2015;48.670;9.060;2022-10-16T08:54:31;2.87;;;2.67;;
4001;SDS011;2015;48.670;9.060;2022-10-16T08:57:17;3.00;;;2.83;;
4001;SDS011;2015;48.670;9.060;2022-10-16T08:59:55;3.50;;;3.20;;
4001;SDS011;2015;48.670;9.060;2022-10-16T09:10:58;2.93;;;2.63;;
4001;SDS011;2015;48.670;9.060;2022-10-16T09:16:44;3.30;;;3.10;;
4001;SDS011;2015;48.670;9.060;2022-10-16T09:19:30;3.20;;;2.90;;
4001;SDS011;2015;48.670;9.060;2022-10-16T09:22:15;3.10;;;2.90;;
4001;SDS011;2015;48.670;9.060;2022-10-16T09:24:48;2.80;;;2.60;;
4001;SDS011;2015;48.670;9.060;2022-10-16T09:27:19;3.60;;;2.40;;
4001;SDS011;2015;48.670;9.060;2022-10-16T09:29:51;2.90;;;2.70;;
4001;SDS011;2015;48.670;9.060;2022-10-16T09:32:30;2.60;;;2.23;;
4001;SDS011;2015;48.670;9.060;2022-10-16T09:35:04;2.30;;;2.20;;
4001;SDS011;2015;48.670;9.060;2022-10-16T09:37:45;2.10;;;2.00;;
4001;SDS011;2015;48.670;9.060;2022-10-16T09:40:26;3.33;;;2.43;;
4001;SDS011;2015;48.670;9.060;2022-10-16T09:43:34;2.80;;;2.60;;
4001;SDS011;2015;48.670;9.060;2022-10-16T09:46:33;2.20;;;2.00;;
4001;SDS011;2015;48.670;9.060;2022-10-16T09:52:12;3.10;;;2.00;;
4001;SDS011;2015;48.670;9.060;2022-10-16T09:54:59;2.10;;;1.90;;
4001;SDS011;2015;48.670;9.060;2022-10-16T09:57:32;2.05;;;1.85;;
4001;SDS011;2015;48.670;9.060;2022-10-16T10:00:08;3.00;;;1.90;;
4001;SDS011;2015;48.670;9.060;2022-10-16T10:02:40;2.00;;;1.90;;
4001;SDS011;2015;48.670;9.060;2022-10-16T10:05:22;2.37;;;2.27;;
4001;SDS011;2015;48.670;9.060;2022-10-16T10:07:59;2.10;;;2.00;;
4001;SDS011;2015;48.670;9.060;2022-10-16T10:10:39;1.90;;;1.80;;
4001;SDS011;2015;48.670;9.060;2022-10-16T10:13:20;3.50;;;1.67;;
4001;SDS011;2015;48.670;9.060;2022-10-16T10:15:53;2.70;;;2.30;;
4001;SDS011;2015;48.670;9.060;2022-10-16T10:18:25;3.87;;;2.40;;
4001;SDS011;2015;48.670;9.060;2022-10-16T10:21:01;2.03;;;1.93;;
4001;SDS011;2015;48.670;9.060;2022-10-16T10:23:35;2.97;;;1.77;;
4001;SDS011;2015;48.670;9.060;2022-10-16T10:26:12;2.23;;;2.10;;
4001;SDS011;2015;48.670;9.060;2022-10-16T10:29:01;2.40;;;2.20;;
4001;SDS011;2015;48.670;9.060;2022-10-16T10:43:13;2.50;;;2.40;;
4001;SDS011;2015;48.670;9.060;2022-10-16T10:46:09;2.73;;;2.53;;
4001;SDS011;2015;48.670;9.060;2022-10-16T10:51:49;2.20;;;2.10;;
4001;SDS011;2015;48.670;9.060;2022-10-16T10:54:49;4.13;;;2.83;;
4001;SDS011;2015;48.670;9.060;2022-10-16T11:00:28;2.40;;;2.20;;
4001;SDS011;2015;48.670;9.060;2022-10-16T11:03:55;2.00;;;1.90;;
4001;SDS011;2015;48.670;9.060;2022-10-16T11:06:33;2.70;;;2.10;;
4001;SDS011;2015;48.670;9.060;2022-10-16T11:09:11;2.60;;;2.40;;
4001;SDS011;2015;48.670;9.060;2022-10-16T11:23:09;2.50;;;2.30;;
4001;SDS011;2015;48.670;9.060;2022-10-16T11:26:08;5.67;;;5.17;;
4001;SDS011;2015;48.670;9.060;2022-10-16T11:28:51;3.03;;;2.83;;
4001;SDS011;2015;48.670;9.060;2022-10-16T11:31:38;2.17;;;2.07;;
4001;SDS011;2015;48.670;9.060;2022-10-16T11:34:34;7.60;;;2.63;;
4001;SDS011;2015;48.670;9.060;2022-10-16T11:37:20;3.03;;;2.83;;
4001;SDS011;2015;48.670;9.060;2022-10-16T11:40:33;3.13;;;2.47;;
4001;SDS011;2015;48.670;9.060;2022-10-16T11:43:14;2.90;;;2.53;;
4001;SDS011;2015;48.670;9.060;2022-10-16T11:45:53;5.85;;;2.00;;
4001;SDS011;2015;48.670;9.060;2022-10-16T11:48:43;2.00;;;1.90;;
4001;SDS011;2015;48.670;9.060;2022-10-16T11:54:14;3.73;;;2.70;;
4001;SDS011;2015;48.670;9.060;2022-10-16T11:57:13;4.40;;;2.33;;
4001;SDS011;2015;48.670;9.060;2022-10-16T12:00:37;4.50;;;2.60;;
4001;SDS011;2015;48.670;9.060;2022-10-16T12:08:18;2.57;;;2.30;;
4001;SDS011;2015;48.670;9.060;2022-10-16T12:10:50;2.50;;;2.30;;
4001;SDS011;2015;48.670;9.060;2022-10-16T12:18:45;4.00;;;2.80;;
4001;SDS011;2015;48.670;9.060;2022-10-16T12:21:17;3.27;;;2.80;;
4001;SDS011;2015;48.670;9.060;2022-10-16T12:24:01;2.60;;;2.50;;
4001;SDS011;2015;48.670;9.060;2022-10-16T12:26:38;2.80;;;2.60;;
4001;SDS011;2015;48.670;9.060;2022-10-16T12:32:04;2.97;;;2.53;;
4001;SDS011;2015;48.670;9.060;2022-10-16T12:34:41;2.87;;;2.70;;
4001;SDS011;2015;48.670;9.060;2022-10-16T12:37:18;7.43;;;2.93;;
4001;SDS011;2015;48.670;9.060;2022-10-16T12:39:55;2.47;;;2.28;;
4001;SDS011;2015;48.670;9.060;2022-10-16T12:48:04;2.90;;;2.70;;
4001;SDS011;2015;48.670;9.060;2022-10-16T12:50:49;2.50;;;2.30;;
4001;SDS011;2015;48.670;9.060;2022-10-16T12:53:22;2.50;;;2.40;;
4001;SDS011;2015;48.670;9.060;2022-10-16T13:01:26;2.70;;;2.50;;
4001;SDS011;2015;48.670;9.060;2022-10-16T13:07:25;3.87;;;2.80;;
4001;SDS011;2015;48.670;9.060;2022-10-16T13:10:25;2.97;;;2.77;;
4001;SDS011;2015;48.670;9.060;2022-10-16T13:18:24;2.67;;;2.57;;
4001;SDS011;2015;48.670;9.060;2022-10-16T13:24:14;3.53;;;2.70;;
4001;SDS011;2015;48.670;9.060;2022-10-16T13:29:43;2.83;;;2.63;;
4001;SDS011;2015;48.670;9.060;2022-10-16T13:32:15;3.57;;;2.53;;
4001;SDS011;2015;48.670;9.060;2022-10-16T13:34:48;2.80;;;2.60;;
4001;SDS011;2015;48.670;9.060;2022-10-16T13:37:21;2.60;;;2.50;;
4001;SDS011;2015;48.670;9.060;2022-10-16T13:40:02;2.73;;;2.50;;
4001;SDS011;2015;48.670;9.060;2022-10-16T13:42:50;2.40;;;2.30;;
4001;SDS011;2015;48.670;9.060;2022-10-16T13:45:24;4.70;;;2.80;;
4001;SDS011;2015;48.670;9.060;2022-10-16T13:48:03;3.23;;;2.60;;
4001;SDS011;2015;48.670;9.060;2022-10-16T13:50:36;6.20;;;2.77;;
4001;SDS011;2015;48.670;9.060;2022-10-16T13:53:14;2.57;;;2.37;;
4001;SDS011;2015;48.670;9.060;2022-10-16T13:55:46;6.60;;;3.27;;
4001;SDS011;2015;48.670;9.060;2022-10-16T13:58:17;10.07;;;2.90;;
4001;SDS011;2015;48.670;9.060;2022-10-16T14:01:00;6.72;;;2.47;;
4001;SDS011;2015;48.670;9.060;2022-10-16T14:03:36;11.80;;;4.03;;
4001;SDS011;2015;48.670;9.060;2022-10-16T14:06:27;6.57;;;2.80;;
4001;SDS011;2015;48.670;9.060;2022-10-16T14:09:00;13.87;;;3.00;;
4001;SDS011;2015;48.670;9.060;2022-10-16T14:11:42;20.77;;;4.50;;
4001;SDS011;2015;48.670;9.060;2022-10-16T14:14:22;12.60;;;3.87;;
4001;SDS011;2015;48.670;9.060;2022-10-16T14:16:54;3.00;;;2.80;;
4001;SDS011;2015;48.670;9.060;2022-10-16T14:19:28;6.53;;;2.93;;
4001;SDS011;2015;48.670;9.060;2022-10-16T14:22:01;8.10;;;3.03;;
4001;SDS011;2015;48.670;9.060;2022-10-16T14:24:33;8.40;;;3.33;;
4001;SDS011;2015;48.670;9.060;2022-10-16T14:30:14;13.10;;;4.37;;
4001;SDS011;2015;48.670;9.060;2022-10-16T14:32:56;10.83;;;3.10;;
4001;SDS011;2015;48.670;9.060;2022-10-16T14:35:37;12.47;;;4.10;;
4001;SDS011;2015;48.670;9.060;2022-10-16T14:38:20;11.23;;;3.90;;
4001;SDS011;2015;48.670;9.060;2022-10-16T14:40:53;11.97;;;3.37;;
4001;SDS011;2015;48.670;9.060;2022-10-16T14:46:04;18.90;;;4.77;;
4001;SDS011;2015;48.670;9.060;2022-10-16T14:48:48;8.53;;;3.70;;
4001;SDS011;2015;48.670;9.060;2022-10-16T14:51:22;5.00;;;3.03;;
4001;SDS011;2015;48.670;9.060;2022-10-16T14:53:54;13.07;;;3.63;;
4001;SDS011;2015;48.670;9.060;2022-10-16T14:56:52;8.63;;;3.27;;
4001;SDS011;2015;48.670;9.060;2022-10-16T14:59:30;24.17;;;4.30;;
4001;SDS011;2015;48.670;9.060;2022-10-16T15:04:59;18.93;;;3.73;;
4001;SDS011;2015;48.670;9.060;2022-10-16T15:07:50;11.37;;;3.83;;
4001;SDS011;2015;48.670;9.060;2022-10-16T15:10:27;11.70;;;4.20;;
4001;SDS011;2015;48.670;9.060;2022-10-16T15:13:00;11.67;;;4.00;;
4001;SDS011;2015;48.670;9.060;2022-10-16T15:15:44;4.97;;;3.93;;
4001;SDS011;2015;48.670;9.060;2022-10-16T15:18:22;10.20;;;4.10;;
4001;SDS011;2015;48.670;9.060;2022-10-16T15:20:54;25.80;;;4.77;;
4001;SDS011;2015;48.670;9.060;2022-10-16T15:23:26;13.90;;;5.00;;
4001;SDS011;2015;48.670;9.060;2022-10-16T15:25:58;11.10;;;4.43;;
4001;SDS011;2015;48.670;9.060;2022-10-16T15:28:30;18.10;;;5.13;;
4001;SDS011;2015;48.670;9.060;2022-10-16T15:31:02;10.60;;;4.23;;
4001;SDS011;2015;48.670;9.060;2022-10-16T15:33:36;11.57;;;4.00;;
4001;SDS011;2015;48.670;9.060;2022-10-16T15:36:10;12.70;;;5.77;;
4001;SDS011;2015;48.670;9.060;2022-10-16T15:38:42;14.50;;;6.73;;
4001;SDS011;2015;48.670;9.060;2022-10-16T15:41:13;7.43;;;4.90;;
4001;SDS011;2015;48.670;9.060;2022-10-16T15:43:46;5.47;;;4.37;;
4001;SDS011;2015;48.670;9.060;2022-10-16T15:46:20;8.37;;;4.13;;
4001;SDS011;2015;48.670;9.060;2022-10-16T15:48:56;6.63;;;4.27;;
4001;SDS011;2015;48.670;9.060;2022-10-16T15:51:29;8.93;;;4.37;;
4001;SDS011;2015;48.670;9.060;2022-10-16T15:54:03;17.97;;;4.30;;
4001;SDS011;2015;48.670;9.060;2022-10-16T15:56:35;22.70;;;4.37;;
4001;SDS011;2015;48.670;9.060;2022-10-16T15:59:08;10.27;;;4.70;;
4001;SDS011;2015;48.670;9.060;2022-10-16T16:01:40;10.33;;;3.90;;
4001;SDS011;2015;48.670;9.060;2022-10-16T16:04:11;7.00;;;4.13;;
4001;SDS011;2015;48.670;9.060;2022-10-16T16:07:03;15.87;;;4.03;;
4001;SDS011;2015;48.670;9.060;2022-10-16T16:09:38;7.53;;;4.23;;
4001;SDS011;2015;48.670;9.060;2022-10-16T16:12:10;10.07;;;5.30;;
4001;SDS011;2015;48.670;9.060;2022-10-16T16:14:41;5.00;;;4.23;;
4001;SDS011;2015;48.670;9.060;2022-10-16T16:17:17;9.40;;;6.05;;
4001;SDS011;2015;48.670;9.060;2022-10-16T16:19:52;14.37;;;5.70;;
4001;SDS011;2015;48.670;9.060;2022-10-16T16:22:24;10.23;;;5.10;;
4001;SDS011;2015;48.670;9.060;2022-10-16T16:24:56;18.97;;;4.40;;
4001;SDS011;2015;48.670;9.060;2022-10-16T16:27:28;9.23;;;4.27;;
4001;SDS011;2015;48.670;9.060;2022-10-16T16:30:05;5.33;;;4.43;;
4001;SDS011;2015;48.670;9.060;2022-10-16T16:32:38;7.27;;;5.13;;
4001;SDS011;2015;48.670;9.060;2022-10-16T16:35:10;7.13;;;3.80;;
4001;SDS011;2015;48.670;9.060;2022-10-16T16:37:42;6.27;;;4.33;;
4001;SDS011;2015;48.670;9.060;2022-10-16T16:40:14;11.90;;;4.20;;
4001;SDS011;2015;48.670;9.060;2022-10-16T16:42:47;10.77;;;5.03;;
4001;SDS011;2015;48.670;9.060;2022-10-16T16:45:20;12.57;;;4.77;;
4001;SDS011;2015;48.670;9.060;2022-10-16T16:47:52;5.67;;;5.00;;
4001;SDS011;2015;48.670;9.060;2022-10-16T16:50:24;7.37;;;4.60;;
4001;SDS011;2015;48.670;9.060;2022-10-16T16:52:56;4.47;;;4.17;;
4001;SDS011;2015;48.670;9.060;2022-10-16T16:55:28;4.70;;;4.27;;
4001;SDS011;2015;48.670;9.060;2022-10-16T16:57:59;4.83;;;4.30;;
4001;SDS011;2015;48.670;9.060;2022-10-16T17:00:31;8.20;;;4.33;;
4001;SDS011;2015;48.670;9.060;2022-10-16T17:03:03;8.67;;;5.13;;
4001;SDS011;2015;48.670;9.060;2022-10-16T17:05:35;6.30;;;4.30;;
4001;SDS011;2015;48.670;9.060;2022-10-16T17:08:07;10.17;;;3.90;;
4001;SDS011;2015;48.670;9.060;2022-10-16T17:10:43;8.55;;;3.90;;
4001;SDS011;2015;48.670;9.060;2022-10-16T17:13:15;5.67;;;5.17;;
4001;SDS011;2015;48.670;9.060;2022-10-16T17:15:47;8.77;;;5.27;;
4001;SDS011;2015;48.670;9.060;2022-10-16T17:18:20;9.10;;;4.47;;
4001;SDS011;2015;48.670;9.060;2022-10-16T17:20:53;10.27;;;4.43;;
4001;SDS011;2015;48.670;9.060;2022-10-16T17:23:25;12.03;;;5.03;;
4001;SDS011;2015;48.670;9.060;2022-10-16T17:26:02;5.30;;;4.60;;
4001;SDS011;2015;48.670;9.060;2022-10-16T17:28:36;5.97;;;4.60;;
4001;SDS011;2015;48.670;9.060;2022-10-16T17:31:15;8.37;;;4.80;;
4001;SDS011;2015;48.670;9.060;2022-10-16T17:33:50;6.90;;;5.40;;
4001;SDS011;2015;48.670;9.060;2022-10-16T17:36:22;8.97;;;4.90;;
4001;SDS011;2015;48.670;9.060;2022-10-16T17:38:54;12.53;;;4.67;;
4001;SDS011;2015;48.670;9.060;2022-10-16T17:41:31;13.30;;;5.10;;
4001;SDS011;2015;48.670;9.060;2022-10-16T17:44:04;8.80;;;4.57;;
4001;SDS011;2015;48.670;9.060;2022-10-16T17:46:36;5.37;;;4.80;;
4001;SDS011;2015;48.670;9.060;2022-10-16T17:49:11;8.07;;;4.63;;
4001;SDS011;2015;48.670;9.060;2022-10-16T17:51:43;12.07;;;5.00;;
4001;SDS011;2015;48.670;9.060;2022-10-16T17:54:15;7.23;;;4.90;;
4001;SDS011;2015;48.670;9.060;2022-10-16T17:56:46;10.67;;;4.37;;
4001;SDS011;2015;48.670;9.060;2022-10-16T17:59:19;4.17;;;3.77;;
4001;SDS011;2015;48.670;9.060;2022-10-16T18:01:53;4.43;;;4.03;;
4001;SDS011;2015;48.670;9.060;2022-10-16T18:04:25;14.80;;;4.00;;
4001;SDS011;2015;48.670;9.060;2022-10-16T18:06:57;14.73;;;4.20;;
4001;SDS011;2015;48.670;9.060;2022-10-16T18:09:30;5.87;;;4.10;;
4001;SDS011;2015;48.670;9.060;2022-10-16T18:12:02;16.43;;;5.27;;
4001;SDS011;2015;48.670;9.060;2022-10-16T18:14:34;10.20;;;6.50;;
4001;SDS011;2015;48.670;9.060;2022-10-16T18:17:06;5.13;;;3.90;;
4001;SDS011;2015;48.670;9.060;2022-10-16T18:19:37;15.13;;;4.40;;
4001;SDS011;2015;48.670;9.060;2022-10-16T18:22:09;11.13;;;5.60;;
4001;SDS011;2015;48.670;9.060;2022-10-16T18:24:41;7.13;;;5.20;;
4001;SDS011;2015;48.670;9.060;2022-10-16T18:27:13;20.13;;;6.90;;
4001;SDS011;2015;48.670;9.060;2022-10-16T18:29:44;15.77;;;4.90;;
4001;SDS011;2015;48.670;9.060;2022-10-16T18:32:16;16.00;;;5.20;;
4001;SDS011;2015;48.670;9.060;2022-10-16T18:34:48;6.03;;;5.47;;
4001;SDS011;2015;48.670;9.060;2022-10-16T18:37:20;11.70;;;4.53;;
4001;SDS011;2015;48.670;9.060;2022-10-16T18:39:52;11.13;;;4.57;;
4001;SDS011;2015;48.670;9.060;2022-10-16T18:42:24;5.70;;;4.73;;
4001;SDS011;2015;48.670;9.060;2022-10-16T18:44:55;8.03;;;5.33;;
4001;SDS011;2015;48.670;9.060;2022-10-16T18:47:27;12.43;;;5.33;;
4001;SDS011;2015;48.670;9.060;2022-10-16T18:50:00;12.43;;;5.40;;
4001;SDS011;2015;48.670;9.060;2022-10-16T18:52:31;11.70;;;7.07;;
4001;SDS011;2015;48.670;9.060;2022-10-16T18:55:03;6.10;;;5.50;;
4001;SDS011;2015;48.670;9.060;2022-10-16T18:57:36;5.90;;;4.50;;
4001;SDS011;2015;48.670;9.060;2022-10-16T19:00:07;5.97;;;5.47;;
4001;SDS011;2015;48.670;9.060;2022-10-16T19:02:40;7.23;;;5.07;;
4001;SDS011;2015;48.670;9.060;2022-10-16T19:05:11;9.90;;;5.60;;
4001;SDS011;2015;48.670;9.060;2022-10-16T19:07:46;8.70;;;5.10;;
4001;SDS011;2015;48.670;9.060;2022-10-16T19:10:18;7.63;;;4.43;;
4001;SDS011;2015;48.670;9.060;2022-10-16T19:12:50;16.43;;;5.80;;
4001;SDS011;2015;48.670;9.060;2022-10-16T19:15:22;11.30;;;4.57;;
4001;SDS011;2015;48.670;9.060;2022-10-16T19:17:54;8.93;;;6.10;;
4001;SDS011;2015;48.670;9.060;2022-10-16T19:20:25;23.17;;;6.07;;
4001;SDS011;2015;48.670;9.060;2022-10-16T19:22:57;27.57;;;7.37;;
4001;SDS011;2015;48.670;9.060;2022-10-16T19:25:29;19.67;;;7.47;;
4001;SDS011;2015;48.670;9.060;2022-10-16T19:28:02;12.88;;;6.93;;
4001;SDS011;2015;48.670;9.060;2022-10-16T19:30:38;9.93;;;7.33;;
4001;SDS011;2015;48.670;9.060;2022-10-16T19:33:10;10.73;;;7.30;;
4001;SDS011;2015;48.670;9.060;2022-10-16T19:35:43;18.80;;;7.00;;
4001;SDS011;2015;48.670;9.060;2022-10-16T19:38:15;11.07;;;7.60;;
4001;SDS011;2015;48.670;9.060;2022-10-16T19:40:47;10.13;;;5.70;;
4001;SDS011;2015;48.670;9.060;2022-10-16T19:43:18;7.93;;;7.23;;
4001;SDS011;2015;48.670;9.060;2022-10-16T19:45:50;17.43;;;7.57;;
4001;SDS011;2015;48.670;9.060;2022-10-16T19:48:22;7.30;;;6.10;;
4001;SDS011;2015;48.670;9.060;2022-10-16T19:51:00;12.67;;;6.27;;
4001;SDS011;2015;48.670;9.060;2022-10-16T19:53:32;11.50;;;6.20;;
4001;SDS011;2015;48.670;9.060;2022-10-16T19:56:13;13.18;;;6.47;;
4001;SDS011;2015;48.670;9.060;2022-10-16T19:58:48;20.03;;;6.87;;
4001;SDS011;2015;48.670;9.060;2022-10-16T20:01:21;13.77;;;6.17;;
4001;SDS011;2015;48.670;9.060;2022-10-16T20:03:54;9.23;;;5.47;;
4001;SDS011;2015;48.670;9.060;2022-10-16T20:06:26;13.57;;;5.80;;
4001;SDS011;2015;48.670;9.060;2022-10-16T20:08:58;17.63;;;6.37;;
4001;SDS011;2015;48.670;9.060;2022-10-16T20:11:31;13.50;;;5.70;;
4001;SDS011;2015;48.670;9.060;2022-10-16T20:14:04;9.00;;;4.93;;
4001;SDS011;2015;48.670;9.060;2022-10-16T20:16:36;6.33;;;5.60;;
4001;SDS011;2015;48.670;9.060;2022-10-16T20:19:10;10.63;;;6.50;;
4001;SDS011;2015;48.670;9.060;2022-10-16T20:21:42;16.07;;;7.73;;
4001;SDS011;2015;48.670;9.060;2022-10-16T20:24:13;26.73;;;6.17;;
4001;SDS011;2015;48.670;9.060;2022-10-16T20:26:45;19.03;;;5.60;;
4001;SDS011;2015;48.670;9.060;2022-10-16T20:29:17;11.83;;;6.33;;
4001;SDS011;2015;48.670;9.060;2022-10-16T20:31:49;20.20;;;6.03;;
4001;SDS011;2015;48.670;9.060;2022-10-16T20:34:21;13.30;;;6.27;;
4001;SDS011;2015;48.670;9.060;2022-10-16T20:36:52;14.70;;;5.63;;
4001;SDS011;2015;48.670;9.060;2022-10-16T20:39:24;10.03;;;4.77;;
4001;SDS011;2015;48.670;9.060;2022-10-16T20:41:56;10.10;;;5.67;;
4001;SDS011;2015;48.670;9.060;2022-10-16T20:44:28;15.70;;;5.90;;
4001;SDS011;2015;48.670;9.060;2022-10-16T20:46:59;21.37;;;5.50;;
4001;SDS011;2015;48.670;9.060;2022-10-16T20:49:31;11.27;;;5.40;;
4001;SDS011;2015;48.670;9.060;2022-10-16T20:52:11;6.87;;;6.00;;
4001;SDS011;2015;48.670;9.060;2022-10-16T20:54:43;8.50;;;4.93;;
4001;SDS011;2015;48.670;9.060;2022-10-16T20:57:15;13.40;;;5.20;;
4001;SDS011;2015;48.670;9.060;2022-10-16T20:59:47;12.63;;;5.40;;
4001;SDS011;2015;48.670;9.060;2022-10-16T21:02:21;9.73;;;5.93;;
4001;SDS011;2015;48.670;9.060;2022-10-16T21:04:58;6.73;;;5.83;;
4001;SDS011;2015;48.670;9.060;2022-10-16T21:07:29;17.00;;;6.90;;
4001;SDS011;2015;48.670;9.060;2022-10-16T21:10:02;9.33;;;6.27;;
4001;SDS011;2015;48.670;9.060;2022-10-16T21:12:34;14.10;;;6.60;;
4001;SDS011;2015;48.670;9.060;2022-10-16T21:15:06;13.47;;;5.47;;
4001;SDS011;2015;48.670;9.060;2022-10-16T21:17:46;14.65;;;6.25;;
4001;SDS011;2015;48.670;9.060;2022-10-16T21:20:19;6.43;;;5.13;;
4001;SDS011;2015;48.670;9.060;2022-10-16T21:22:51;17.33;;;5.00;;
4001;SDS011;2015;48.670;9.060;2022-10-16T21:25:22;11.70;;;5.43;;
4001;SDS011;2015;48.670;9.060;2022-10-16T21:27:54;12.20;;;4.90;;
4001;SDS011;2015;48.670;9.060;2022-10-16T21:30:26;13.13;;;6.70;;
4001;SDS011;2015;48.670;9.060;2022-10-16T21:32:57;9.53;;;5.43;;
4001;SDS011;2015;48.670;9.060;2022-10-16T21:35:29;14.30;;;6.20;;
4001;SDS011;2015;48.670;9.060;2022-10-16T21:38:01;9.50;;;6.90;;
4001;SDS011;2015;48.670;9.060;2022-10-16T21:40:36;14.90;;;7.10;;